Weather at Bontang Airport

Public forecast

Using degrees Celsius for public forecast. Weather courtesy of forecast.io.

Closest aviation weather report (METAR) to Bontang Airport

Closest report is Sultan Aji Muhamad Sulaiman Airport, 90.3 nm (167.3 km) SSW. Retrieved 2021/12/08 00:30 UTC (39 minutes ago):

WALL 080030Z 36003KT 9999 FEW018CB SCT020 24/22 Q1011RMK CB TO E

Closest aviation forecast (TAF) to Bontang Airport

Forecast is more than 12 hours old.

Closest forecast is Aji Pangeran Tumenggung Pranoto International Airport, 32.6 nm (60.4 km) SSW. Retrieved 2021/12/07 06:00 UTC (19 hours ago):

TAF WALS 070500Z 0706/0718 22005KT 9999 SCT020